Pelham, North Carolina
Current Conditions -  °F | °C
As of 5:53 AM on Wednesday 22 Oct 2014 (Local Time) from KDAN Reporting Station
Clear Clear  
Wind Chill: 43°   Ceiling: Unl
Heat Index: 45°   Visibility: 10mi
Dew Point: 40°   Wind: 5mph
Humidity: 82%   Direction: 260°W
Pressure: 29.97"   Gusts: NA
Location:  36.51°N, 79.47°W
Report Text: KDAN 220953Z AUTO 26004KT 10SM CLR 07/04 A2997 RMK AO2 SLP141 T00720044
Loading
Personal Weather Stations






























Interactive Weather Map
Tropical Storm Tracking
New forecast layout! Learn more

10-Day Weather Forecast

Advertisements
Track Severe Weather on mobile